sensor_id;sensor_type;location;lat;lon;timestamp;pressure;altitude;pressure_sealevel;temperature;humidity
28935;BME280;16044;52.726;-2.108;2023-12-20T00:01:24;100955.97;;;4.65;100.00
28935;BME280;16044;52.726;-2.108;2023-12-20T00:03:54;100965.03;;;4.64;100.00
28935;BME280;16044;52.726;-2.108;2023-12-20T00:06:24;100959.66;;;4.64;100.00
28935;BME280;16044;52.726;-2.108;2023-12-20T00:08:55;100965.25;;;4.61;100.00
28935;BME280;16044;52.726;-2.108;2023-12-20T00:11:28;100966.25;;;4.60;100.00
28935;BME280;16044;52.726;-2.108;2023-12-20T00:13:58;100958.22;;;4.60;100.00
28935;BME280;16044;52.726;-2.108;2023-12-20T00:16:29;100956.75;;;4.56;100.00
28935;BME280;16044;52.726;-2.108;2023-12-20T00:18:59;100956.50;;;4.59;100.00
28935;BME280;16044;52.726;-2.108;2023-12-20T00:21:29;100948.06;;;4.63;100.00
28935;BME280;16044;52.726;-2.108;2023-12-20T00:24:00;100947.56;;;4.69;100.00
28935;BME280;16044;52.726;-2.108;2023-12-20T00:26:33;100950.00;;;4.73;100.00
28935;BME280;16044;52.726;-2.108;2023-12-20T00:29:03;100944.22;;;4.77;100.00
28935;BME280;16044;52.726;-2.108;2023-12-20T00:31:34;100942.25;;;4.79;100.00
28935;BME280;16044;52.726;-2.108;2023-12-20T00:34:04;100950.81;;;4.84;100.00
28935;BME280;16044;52.726;-2.108;2023-12-20T00:36:35;100951.53;;;4.86;100.00
28935;BME280;16044;52.726;-2.108;2023-12-20T00:39:05;100954.94;;;4.88;100.00
28935;BME280;16044;52.726;-2.108;2023-12-20T00:41:38;100963.59;;;4.92;100.00
28935;BME280;16044;52.726;-2.108;2023-12-20T00:44:09;100966.41;;;4.91;100.00
28935;BME280;16044;52.726;-2.108;2023-12-20T00:46:40;100963.31;;;4.95;100.00
28935;BME280;16044;52.726;-2.108;2023-12-20T00:49:10;100966.88;;;4.96;100.00
28935;BME280;16044;52.726;-2.108;2023-12-20T00:51:41;100954.28;;;4.96;100.00
28935;BME280;16044;52.726;-2.108;2023-12-20T00:54:11;100952.56;;;4.95;100.00
28935;BME280;16044;52.726;-2.108;2023-12-20T00:56:44;100956.13;;;4.96;100.00
28935;BME280;16044;52.726;-2.108;2023-12-20T00:59:15;100955.41;;;4.94;100.00
28935;BME280;16044;52.726;-2.108;2023-12-20T01:01:46;100958.94;;;4.94;100.00
28935;BME280;16044;52.726;-2.108;2023-12-20T01:04:17;100953.56;;;4.94;100.00
28935;BME280;16044;52.726;-2.108;2023-12-20T01:06:47;100947.47;;;4.92;100.00
28935;BME280;16044;52.726;-2.108;2023-12-20T01:09:18;100959.91;;;4.93;100.00
28935;BME280;16044;52.726;-2.108;2023-12-20T01:11:53;100954.53;;;4.93;100.00
28935;BME280;16044;52.726;-2.108;2023-12-20T01:14:23;100954.69;;;4.92;100.00
28935;BME280;16044;52.726;-2.108;2023-12-20T01:16:54;100959.19;;;4.91;100.00
28935;BME280;16044;52.726;-2.108;2023-12-20T01:19:24;100952.97;;;4.91;100.00
28935;BME280;16044;52.726;-2.108;2023-12-20T01:21:55;100948.31;;;4.93;100.00
28935;BME280;16044;52.726;-2.108;2023-12-20T01:24:26;100937.56;;;4.93;100.00
28935;BME280;16044;52.726;-2.108;2023-12-20T01:26:58;100936.13;;;4.88;100.00
28935;BME280;16044;52.726;-2.108;2023-12-20T01:29:29;100941.25;;;4.92;100.00
28935;BME280;16044;52.726;-2.108;2023-12-20T01:31:59;100939.28;;;4.94;100.00
28935;BME280;16044;52.726;-2.108;2023-12-20T01:34:30;100928.88;;;5.00;100.00
28935;BME280;16044;52.726;-2.108;2023-12-20T01:37:00;100935.66;;;5.04;100.00
28935;BME280;16044;52.726;-2.108;2023-12-20T01:39:31;100948.63;;;5.11;100.00
28935;BME280;16044;52.726;-2.108;2023-12-20T01:42:04;100949.94;;;5.16;100.00
28935;BME280;16044;52.726;-2.108;2023-12-20T01:44:35;100953.78;;;5.23;100.00
28935;BME280;16044;52.726;-2.108;2023-12-20T01:47:05;100954.53;;;5.25;100.00
28935;BME280;16044;52.726;-2.108;2023-12-20T01:49:36;100951.56;;;5.28;100.00
28935;BME280;16044;52.726;-2.108;2023-12-20T01:52:08;100949.22;;;5.35;100.00
28935;BME280;16044;52.726;-2.108;2023-12-20T01:54:40;100932.66;;;5.40;100.00
28935;BME280;16044;52.726;-2.108;2023-12-20T01:57:14;100932.84;;;5.48;100.00
28935;BME280;16044;52.726;-2.108;2023-12-20T01:59:46;100928.94;;;5.52;100.00
28935;BME280;16044;52.726;-2.108;2023-12-20T02:02:17;100921.47;;;5.56;100.00
28935;BME280;16044;52.726;-2.108;2023-12-20T02:04:47;100918.47;;;5.59;100.00
28935;BME280;16044;52.726;-2.108;2023-12-20T02:07:18;100919.78;;;5.64;100.00
28935;BME280;16044;52.726;-2.108;2023-12-20T02:09:50;100923.91;;;5.69;100.00
28935;BME280;16044;52.726;-2.108;2023-12-20T02:12:23;100929.16;;;5.70;100.00
28935;BME280;16044;52.726;-2.108;2023-12-20T02:14:53;100927.19;;;5.72;100.00
28935;BME280;16044;52.726;-2.108;2023-12-20T02:17:24;100926.78;;;5.77;100.00
28935;BME280;16044;52.726;-2.108;2023-12-20T02:19:55;100923.81;;;5.80;100.00
28935;BME280;16044;52.726;-2.108;2023-12-20T02:22:29;100927.22;;;5.82;100.00
28935;BME280;16044;52.726;-2.108;2023-12-20T02:24:59;100921.84;;;5.82;100.00
28935;BME280;16044;52.726;-2.108;2023-12-20T02:27:29;100922.00;;;5.80;100.00
28935;BME280;16044;52.726;-2.108;2023-12-20T02:30:00;100916.88;;;5.77;100.00
28935;BME280;16044;52.726;-2.108;2023-12-20T02:32:30;100921.13;;;5.80;100.00
28935;BME280;16044;52.726;-2.108;2023-12-20T02:35:01;100912.34;;;5.78;100.00
28935;BME280;16044;52.726;-2.108;2023-12-20T02:37:35;100918.03;;;5.84;100.00
28935;BME280;16044;52.726;-2.108;2023-12-20T02:40:07;100911.28;;;5.90;100.00
28935;BME280;16044;52.726;-2.108;2023-12-20T02:42:38;100912.69;;;5.94;100.00
28935;BME280;16044;52.726;-2.108;2023-12-20T02:45:09;100916.00;;;5.98;100.00
28935;BME280;16044;52.726;-2.108;2023-12-20T02:47:39;100917.28;;;6.03;100.00
28935;BME280;16044;52.726;-2.108;2023-12-20T02:50:10;100910.50;;;6.09;100.00
28935;BME280;16044;52.726;-2.108;2023-12-20T02:52:44;100903.72;;;6.15;100.00
28935;BME280;16044;52.726;-2.108;2023-12-20T02:55:15;100909.38;;;6.12;100.00
28935;BME280;16044;52.726;-2.108;2023-12-20T02:57:45;100901.75;;;6.17;100.00
28935;BME280;16044;52.726;-2.108;2023-12-20T03:00:17;100898.34;;;6.15;100.00
28935;BME280;16044;52.726;-2.108;2023-12-20T03:02:47;100893.53;;;6.18;100.00
28935;BME280;16044;52.726;-2.108;2023-12-20T03:05:18;100883.06;;;6.25;100.00
28935;BME280;16044;52.726;-2.108;2023-12-20T03:07:51;100886.03;;;6.22;100.00
28935;BME280;16044;52.726;-2.108;2023-12-20T03:10:21;100891.84;;;6.27;100.00
28935;BME280;16044;52.726;-2.108;2023-12-20T03:12:53;100886.19;;;6.30;100.00
28935;BME280;16044;52.726;-2.108;2023-12-20T03:15:24;100890.72;;;6.30;100.00
28935;BME280;16044;52.726;-2.108;2023-12-20T03:17:54;100898.50;;;6.33;100.00
28935;BME280;16044;52.726;-2.108;2023-12-20T03:20:26;100894.84;;;6.34;100.00
28935;BME280;16044;52.726;-2.108;2023-12-20T03:23:01;100886.91;;;6.32;100.00
28935;BME280;16044;52.726;-2.108;2023-12-20T03:25:32;100887.59;;;6.34;100.00
28935;BME280;16044;52.726;-2.108;2023-12-20T03:28:02;100886.63;;;6.35;100.00
28935;BME280;16044;52.726;-2.108;2023-12-20T03:30:33;100885.63;;;6.36;100.00
28935;BME280;16044;52.726;-2.108;2023-12-20T03:33:04;100880.09;;;6.38;100.00
28935;BME280;16044;52.726;-2.108;2023-12-20T03:35:35;100872.03;;;6.38;100.00
28935;BME280;16044;52.726;-2.108;2023-12-20T03:38:08;100863.38;;;6.34;100.00
28935;BME280;16044;52.726;-2.108;2023-12-20T03:40:38;100885.50;;;6.38;100.00
28935;BME280;16044;52.726;-2.108;2023-12-20T03:43:09;100876.00;;;6.34;100.00
28935;BME280;16044;52.726;-2.108;2023-12-20T03:45:39;100877.69;;;6.35;100.00
28935;BME280;16044;52.726;-2.108;2023-12-20T03:48:10;100887.88;;;6.31;100.00
28935;BME280;16044;52.726;-2.108;2023-12-20T03:50:40;100888.59;;;6.33;100.00
28935;BME280;16044;52.726;-2.108;2023-12-20T03:53:13;100880.81;;;6.30;100.00
28935;BME280;16044;52.726;-2.108;2023-12-20T03:55:44;100889.84;;;6.29;100.00
28935;BME280;16044;52.726;-2.108;2023-12-20T03:58:14;100887.03;;;6.31;100.00
28935;BME280;16044;52.726;-2.108;2023-12-20T04:00:44;100893.41;;;6.30;100.00
28935;BME280;16044;52.726;-2.108;2023-12-20T04:03:15;100889.03;;;6.38;100.00
28935;BME280;16044;52.726;-2.108;2023-12-20T04:05:45;100877.28;;;6.39;100.00
28935;BME280;16044;52.726;-2.108;2023-12-20T04:08:18;100893.13;;;6.42;100.00
28935;BME280;16044;52.726;-2.108;2023-12-20T04:10:49;100891.31;;;6.53;100.00
28935;BME280;16044;52.726;-2.108;2023-12-20T04:13:20;100892.88;;;6.55;100.00
28935;BME280;16044;52.726;-2.108;2023-12-20T04:15:50;100887.06;;;6.60;100.00
28935;BME280;16044;52.726;-2.108;2023-12-20T04:18:20;100899.53;;;6.61;100.00
28935;BME280;16044;52.726;-2.108;2023-12-20T04:20:51;100896.56;;;6.64;100.00
28935;BME280;16044;52.726;-2.108;2023-12-20T04:23:24;100889.91;;;6.68;100.00
28935;BME280;16044;52.726;-2.108;2023-12-20T04:25:54;100884.25;;;6.71;100.00
28935;BME280;16044;52.726;-2.108;2023-12-20T04:28:25;100866.38;;;6.70;100.00
28935;BME280;16044;52.726;-2.108;2023-12-20T04:30:57;100867.38;;;6.69;100.00
28935;BME280;16044;52.726;-2.108;2023-12-20T04:33:28;100879.41;;;6.65;100.00
28935;BME280;16044;52.726;-2.108;2023-12-20T04:35:58;100864.69;;;6.69;100.00
28935;BME280;16044;52.726;-2.108;2023-12-20T04:38:31;100868.50;;;6.67;100.00
28935;BME280;16044;52.726;-2.108;2023-12-20T04:41:02;100858.41;;;6.69;100.00
28935;BME280;16044;52.726;-2.108;2023-12-20T04:43:33;100852.31;;;6.67;100.00
28935;BME280;16044;52.726;-2.108;2023-12-20T04:46:03;100861.69;;;6.72;100.00
28935;BME280;16044;52.726;-2.108;2023-12-20T04:48:34;100850.19;;;6.70;100.00
28935;BME280;16044;52.726;-2.108;2023-12-20T04:51:04;100845.38;;;6.74;100.00
28935;BME280;16044;52.726;-2.108;2023-12-20T04:53:37;100852.75;;;6.72;100.00
28935;BME280;16044;52.726;-2.108;2023-12-20T04:56:07;100842.81;;;6.72;100.00
28935;BME280;16044;52.726;-2.108;2023-12-20T04:58:38;100850.91;;;6.72;100.00
28935;BME280;16044;52.726;-2.108;2023-12-20T05:01:09;100840.00;;;6.74;100.00
28935;BME280;16044;52.726;-2.108;2023-12-20T05:03:39;100834.03;;;6.70;100.00
28935;BME280;16044;52.726;-2.108;2023-12-20T05:06:10;100841.84;;;6.73;100.00
28935;BME280;16044;52.726;-2.108;2023-12-20T05:08:44;100849.22;;;6.71;100.00
28935;BME280;16044;52.726;-2.108;2023-12-20T05:11:14;100858.41;;;6.78;100.00
28935;BME280;16044;52.726;-2.108;2023-12-20T05:13:45;100853.88;;;6.79;100.00
28935;BME280;16044;52.726;-2.108;2023-12-20T05:16:16;100856.97;;;6.84;100.00
28935;BME280;16044;52.726;-2.108;2023-12-20T05:18:48;100849.78;;;6.85;100.00
28935;BME280;16044;52.726;-2.108;2023-12-20T05:21:20;100845.09;;;6.87;100.00
28935;BME280;16044;52.726;-2.108;2023-12-20T05:23:52;100835.16;;;6.87;100.00
28935;BME280;16044;52.726;-2.108;2023-12-20T05:26:23;100844.94;;;6.88;100.00
28935;BME280;16044;52.726;-2.108;2023-12-20T05:28:53;100836.69;;;6.90;100.00
28935;BME280;16044;52.726;-2.108;2023-12-20T05:31:23;100837.41;;;6.82;100.00
28935;BME280;16044;52.726;-2.108;2023-12-20T05:33:54;100833.75;;;6.83;100.00
28935;BME280;16044;52.726;-2.108;2023-12-20T05:36:24;100846.78;;;6.78;100.00
28935;BME280;16044;52.726;-2.108;2023-12-20T05:38:58;100852.88;;;6.80;100.00
28935;BME280;16044;52.726;-2.108;2023-12-20T05:41:28;100842.25;;;6.78;100.00
28935;BME280;16044;52.726;-2.108;2023-12-20T05:43:58;100840.56;;;6.77;100.00
28935;BME280;16044;52.726;-2.108;2023-12-20T05:46:29;100829.78;;;6.77;100.00
28935;BME280;16044;52.726;-2.108;2023-12-20T05:48:59;100819.16;;;6.76;100.00
28935;BME280;16044;52.726;-2.108;2023-12-20T05:51:30;100822.53;;;6.78;100.00
28935;BME280;16044;52.726;-2.108;2023-12-20T05:54:03;100826.06;;;6.78;100.00
28935;BME280;16044;52.726;-2.108;2023-12-20T05:56:33;100824.41;;;6.77;100.00
28935;BME280;16044;52.726;-2.108;2023-12-20T05:59:04;100821.13;;;6.83;100.00
28935;BME280;16044;52.726;-2.108;2023-12-20T06:01:35;100830.91;;;6.85;100.00
28935;BME280;16044;52.726;-2.108;2023-12-20T06:04:05;100839.97;;;6.83;100.00
28935;BME280;16044;52.726;-2.108;2023-12-20T06:06:40;100836.31;;;6.75;100.00
28935;BME280;16044;52.726;-2.108;2023-12-20T06:09:14;100839.69;;;6.67;100.00
28935;BME280;16044;52.726;-2.108;2023-12-20T06:11:45;100828.94;;;6.67;100.00
28935;BME280;16044;52.726;-2.108;2023-12-20T06:14:15;100841.69;;;6.65;100.00
28935;BME280;16044;52.726;-2.108;2023-12-20T06:16:46;100834.88;;;6.61;100.00
28935;BME280;16044;52.726;-2.108;2023-12-20T06:19:16;100824.69;;;6.55;100.00
28935;BME280;16044;52.726;-2.108;2023-12-20T06:21:47;100819.56;;;6.52;100.00
28935;BME280;16044;52.726;-2.108;2023-12-20T06:24:20;100812.50;;;6.51;100.00
28935;BME280;16044;52.726;-2.108;2023-12-20T06:26:55;100807.53;;;6.46;100.00
28935;BME280;16044;52.726;-2.108;2023-12-20T06:29:25;100809.97;;;6.39;100.00
28935;BME280;16044;52.726;-2.108;2023-12-20T06:31:55;100799.31;;;6.38;100.00
28935;BME280;16044;52.726;-2.108;2023-12-20T06:34:26;100789.84;;;6.34;100.00
28935;BME280;16044;52.726;-2.108;2023-12-20T06:36:56;100810.53;;;6.33;100.00
28935;BME280;16044;52.726;-2.108;2023-12-20T06:39:29;100816.19;;;6.30;100.00
28935;BME280;16044;52.726;-2.108;2023-12-20T06:42:01;100821.31;;;6.33;100.00
28935;BME280;16044;52.726;-2.108;2023-12-20T06:44:32;100832.06;;;6.33;100.00
28935;BME280;16044;52.726;-2.108;2023-12-20T06:47:03;100823.00;;;6.34;100.00
28935;BME280;16044;52.726;-2.108;2023-12-20T06:49:34;100810.81;;;6.40;100.00
28935;BME280;16044;52.726;-2.108;2023-12-20T06:52:05;100818.16;;;6.48;100.00
28935;BME280;16044;52.726;-2.108;2023-12-20T06:54:38;100826.69;;;6.53;100.00
28935;BME280;16044;52.726;-2.108;2023-12-20T06:57:08;100826.25;;;6.57;100.00
28935;BME280;16044;52.726;-2.108;2023-12-20T06:59:39;100820.44;;;6.62;100.00
28935;BME280;16044;52.726;-2.108;2023-12-20T07:02:09;100827.50;;;6.63;100.00
28935;BME280;16044;52.726;-2.108;2023-12-20T07:04:41;100830.22;;;6.63;100.00
28935;BME280;16044;52.726;-2.108;2023-12-20T07:07:11;100835.19;;;6.58;100.00
28935;BME280;16044;52.726;-2.108;2023-12-20T07:09:45;100841.84;;;6.63;100.00
28935;BME280;16044;52.726;-2.108;2023-12-20T07:12:15;100831.22;;;6.62;100.00
28935;BME280;16044;52.726;-2.108;2023-12-20T07:14:46;100825.25;;;6.68;100.00
28935;BME280;16044;52.726;-2.108;2023-12-20T07:17:17;100818.72;;;6.71;100.00
28935;BME280;16044;52.726;-2.108;2023-12-20T07:19:48;100810.78;;;6.79;100.00
28935;BME280;16044;52.726;-2.108;2023-12-20T07:22:19;100815.88;;;6.82;100.00
28935;BME280;16044;52.726;-2.108;2023-12-20T07:24:52;100817.28;;;6.86;100.00
28935;BME280;16044;52.726;-2.108;2023-12-20T07:27:22;100817.00;;;6.89;100.00
28935;BME280;16044;52.726;-2.108;2023-12-20T07:29:52;100826.63;;;6.92;100.00
28935;BME280;16044;52.726;-2.108;2023-12-20T07:32:23;100827.50;;;6.92;100.00
28935;BME280;16044;52.726;-2.108;2023-12-20T07:34:54;100841.53;;;6.96;100.00
28935;BME280;16044;52.726;-2.108;2023-12-20T07:37:25;100846.34;;;7.02;100.00
28935;BME280;16044;52.726;-2.108;2023-12-20T07:39:58;100839.94;;;7.03;100.00
28935;BME280;16044;52.726;-2.108;2023-12-20T07:42:28;100842.63;;;7.03;100.00
28935;BME280;16044;52.726;-2.108;2023-12-20T07:44:59;100846.75;;;7.07;100.00
28935;BME280;16044;52.726;-2.108;2023-12-20T07:47:29;100839.38;;;7.09;100.00
28935;BME280;16044;52.726;-2.108;2023-12-20T07:50:00;100833.97;;;7.09;100.00
28935;BME280;16044;52.726;-2.108;2023-12-20T07:52:30;100832.28;;;7.08;100.00
28935;BME280;16044;52.726;-2.108;2023-12-20T07:55:04;100829.16;;;7.03;100.00
28935;BME280;16044;52.726;-2.108;2023-12-20T07:57:35;100838.25;;;7.02;100.00
28935;BME280;16044;52.726;-2.108;2023-12-20T08:00:07;100834.84;;;7.00;100.00
28935;BME280;16044;52.726;-2.108;2023-12-20T08:02:38;100833.44;;;6.96;100.00
28935;BME280;16044;52.726;-2.108;2023-12-20T08:05:08;100825.66;;;6.93;100.00
28935;BME280;16044;52.726;-2.108;2023-12-20T08:07:39;100831.31;;;6.90;100.00
28935;BME280;16044;52.726;-2.108;2023-12-20T08:10:12;100830.91;;;6.85;100.00
28935;BME280;16044;52.726;-2.108;2023-12-20T08:12:43;100816.00;;;6.80;100.00
28935;BME280;16044;52.726;-2.108;2023-12-20T08:15:14;100822.69;;;6.76;100.00
28935;BME280;16044;52.726;-2.108;2023-12-20T08:17:44;100836.72;;;6.70;100.00
28935;BME280;16044;52.726;-2.108;2023-12-20T08:20:15;100837.56;;;6.71;100.00
28935;BME280;16044;52.726;-2.108;2023-12-20T08:22:55;100847.78;;;6.67;100.00
28935;BME280;16044;52.726;-2.108;2023-12-20T08:25:28;100845.53;;;6.72;100.00
28935;BME280;16044;52.726;-2.108;2023-12-20T08:27:59;100839.16;;;6.73;100.00
28935;BME280;16044;52.726;-2.108;2023-12-20T08:30:30;100838.84;;;6.76;100.00
28935;BME280;16044;52.726;-2.108;2023-12-20T08:33:00;100837.56;;;6.80;100.00
28935;BME280;16044;52.726;-2.108;2023-12-20T08:35:31;100846.78;;;6.88;100.00
28935;BME280;16044;52.726;-2.108;2023-12-20T08:38:03;100861.50;;;6.93;100.00
28935;BME280;16044;52.726;-2.108;2023-12-20T08:40:37;100860.53;;;6.94;100.00
28935;BME280;16044;52.726;-2.108;2023-12-20T08:43:08;100852.00;;;6.99;100.00
28935;BME280;16044;52.726;-2.108;2023-12-20T08:45:38;100838.25;;;7.02;100.00
28935;BME280;16044;52.726;-2.108;2023-12-20T08:48:09;100833.41;;;7.06;100.00
28935;BME280;16044;52.726;-2.108;2023-12-20T08:50:39;100845.03;;;7.06;100.00
28935;BME280;16044;52.726;-2.108;2023-12-20T08:53:10;100839.25;;;7.11;100.00
28935;BME280;16044;52.726;-2.108;2023-12-20T08:55:43;100832.28;;;7.08;100.00
28935;BME280;16044;52.726;-2.108;2023-12-20T08:58:14;100839.25;;;7.11;100.00
28935;BME280;16044;52.726;-2.108;2023-12-20T09:00:45;100829.28;;;7.11;100.00
28935;BME280;16044;52.726;-2.108;2023-12-20T09:03:15;100824.88;;;7.10;100.00
28935;BME280;16044;52.726;-2.108;2023-12-20T09:05:45;100834.53;;;7.13;100.00
28935;BME280;16044;52.726;-2.108;2023-12-20T09:08:16;100828.97;;;7.14;100.00
28935;BME280;16044;52.726;-2.108;2023-12-20T09:10:49;100818.91;;;7.16;100.00
28935;BME280;16044;52.726;-2.108;2023-12-20T09:13:19;100831.13;;;7.20;100.00
28935;BME280;16044;52.726;-2.108;2023-12-20T09:15:55;100824.84;;;7.20;100.00
28935;BME280;16044;52.726;-2.108;2023-12-20T09:18:26;100837.50;;;7.19;100.00
28935;BME280;16044;52.726;-2.108;2023-12-20T09:20:56;100835.34;;;7.23;100.00
28935;BME280;16044;52.726;-2.108;2023-12-20T09:23:27;100832.53;;;7.25;100.00
28935;BME280;16044;52.726;-2.108;2023-12-20T09:26:00;100826.53;;;7.31;100.00
28935;BME280;16044;52.726;-2.108;2023-12-20T09:28:31;100823.84;;;7.31;100.00
28935;BME280;16044;52.726;-2.108;2023-12-20T09:31:04;100822.41;;;7.36;100.00
28935;BME280;16044;52.726;-2.108;2023-12-20T09:33:35;100820.25;;;7.40;100.00
28935;BME280;16044;52.726;-2.108;2023-12-20T09:36:07;100820.34;;;7.48;100.00
28935;BME280;16044;52.726;-2.108;2023-12-20T09:38:39;100807.88;;;7.47;100.00
28935;BME280;16044;52.726;-2.108;2023-12-20T09:41:15;100815.50;;;7.52;100.00
28935;BME280;16044;52.726;-2.108;2023-12-20T09:43:47;100807.84;;;7.57;100.00
28935;BME280;16044;52.726;-2.108;2023-12-20T09:46:21;100814.78;;;7.59;100.00
28935;BME280;16044;52.726;-2.108;2023-12-20T09:48:55;100807.09;;;7.65;100.00
28935;BME280;16044;52.726;-2.108;2023-12-20T09:51:26;100811.19;;;7.69;100.00
28935;BME280;16044;52.726;-2.108;2023-12-20T09:53:59;100797.41;;;7.72;100.00
28935;BME280;16044;52.726;-2.108;2023-12-20T09:56:33;100781.06;;;7.73;100.00
28935;BME280;16044;52.726;-2.108;2023-12-20T09:59:04;100780.59;;;7.78;100.00
28935;BME280;16044;52.726;-2.108;2023-12-20T10:01:35;100781.84;;;7.84;100.00
28935;BME280;16044;52.726;-2.108;2023-12-20T10:04:06;100781.41;;;7.88;100.00
28935;BME280;16044;52.726;-2.108;2023-12-20T10:06:55;100777.69;;;7.89;100.00
28935;BME280;16044;52.726;-2.108;2023-12-20T10:09:30;100786.47;;;7.91;100.00
28935;BME280;16044;52.726;-2.108;2023-12-20T10:12:05;100785.31;;;7.94;100.00
28935;BME280;16044;52.726;-2.108;2023-12-20T10:14:37;100784.47;;;7.93;100.00
28935;BME280;16044;52.726;-2.108;2023-12-20T10:17:08;100802.44;;;8.03;100.00
28935;BME280;16044;52.726;-2.108;2023-12-20T10:19:39;100787.50;;;8.08;100.00
28935;BME280;16044;52.726;-2.108;2023-12-20T10:22:10;100791.72;;;8.11;100.00
28935;BME280;16044;52.726;-2.108;2023-12-20T10:24:40;100805.78;;;8.14;100.00
28935;BME280;16044;52.726;-2.108;2023-12-20T10:27:14;100808.19;;;8.17;100.00
28935;BME280;16044;52.726;-2.108;2023-12-20T10:29:46;100808.72;;;8.21;100.00
28935;BME280;16044;52.726;-2.108;2023-12-20T10:32:23;100808.72;;;8.21;100.00
28935;BME280;16044;52.726;-2.108;2023-12-20T10:34:55;100797.63;;;8.24;100.00
28935;BME280;16044;52.726;-2.108;2023-12-20T10:37:26;100794.59;;;8.27;100.00
28935;BME280;16044;52.726;-2.108;2023-12-20T10:39:59;100793.13;;;8.33;100.00
28935;BME280;16044;52.726;-2.108;2023-12-20T10:42:36;100778.47;;;8.35;100.00
28935;BME280;16044;52.726;-2.108;2023-12-20T10:45:08;100776.78;;;8.34;100.00
28935;BME280;16044;52.726;-2.108;2023-12-20T10:47:40;100774.78;;;8.36;100.00
28935;BME280;16044;52.726;-2.108;2023-12-20T10:50:12;100776.78;;;8.34;100.00
28935;BME280;16044;52.726;-2.108;2023-12-20T10:52:44;100772.59;;;8.40;100.00
28935;BME280;16044;52.726;-2.108;2023-12-20T10:55:15;100752.00;;;8.39;100.00
28935;BME280;16044;52.726;-2.108;2023-12-20T10:57:49;100760.28;;;8.37;100.00
28935;BME280;16044;52.726;-2.108;2023-12-20T11:00:21;100766.19;;;8.41;100.00
28935;BME280;16044;52.726;-2.108;2023-12-20T11:02:54;100748.19;;;8.42;100.00
28935;BME280;16044;52.726;-2.108;2023-12-20T11:05:38;100733.25;;;8.37;100.00
28935;BME280;16044;52.726;-2.108;2023-12-20T11:08:20;100725.53;;;8.43;100.00
28935;BME280;16044;52.726;-2.108;2023-12-20T11:11:04;100721.84;;;8.44;100.00
28935;BME280;16044;52.726;-2.108;2023-12-20T11:13:44;100726.94;;;8.47;100.00
28935;BME280;16044;52.726;-2.108;2023-12-20T11:16:23;100721.00;;;8.43;100.00
28935;BME280;16044;52.726;-2.108;2023-12-20T11:19:07;100716.66;;;8.50;100.00
28935;BME280;16044;52.726;-2.108;2023-12-20T11:21:38;100705.84;;;8.50;100.00
28935;BME280;16044;52.726;-2.108;2023-12-20T11:24:09;100696.22;;;8.48;100.00
28935;BME280;16044;52.726;-2.108;2023-12-20T11:26:46;100686.78;;;8.52;100.00
28935;BME280;16044;52.726;-2.108;2023-12-20T11:29:33;100680.53;;;8.51;100.00
28935;BME280;16044;52.726;-2.108;2023-12-20T11:32:28;100662.84;;;8.57;100.00
28935;BME280;16044;52.726;-2.108;2023-12-20T11:35:00;100662.19;;;8.63;100.00
28935;BME280;16044;52.726;-2.108;2023-12-20T11:37:35;100655.31;;;8.69;100.00
28935;BME280;16044;52.726;-2.108;2023-12-20T11:40:12;100646.75;;;8.73;100.00
28935;BME280;16044;52.726;-2.108;2023-12-20T11:42:49;100647.75;;;8.81;100.00
28935;BME280;16044;52.726;-2.108;2023-12-20T11:45:24;100653.69;;;8.84;100.00
28935;BME280;16044;52.726;-2.108;2023-12-20T11:47:57;100641.75;;;8.87;100.00
28935;BME280;16044;52.726;-2.108;2023-12-20T11:50:28;100636.00;;;8.90;100.00
28935;BME280;16044;52.726;-2.108;2023-12-20T11:52:59;100640.94;;;8.94;100.00
28935;BME280;16044;52.726;-2.108;2023-12-20T11:55:29;100635.38;;;8.96;100.00
28935;BME280;16044;52.726;-2.108;2023-12-20T11:57:59;100633.34;;;8.98;100.00
28935;BME280;16044;52.726;-2.108;2023-12-20T12:00:32;100631.63;;;8.97;100.00
28935;BME280;16044;52.726;-2.108;2023-12-20T12:03:03;100626.75;;;9.01;100.00
28935;BME280;16044;52.726;-2.108;2023-12-20T12:05:34;100613.91;;;9.03;100.00
28935;BME280;16044;52.726;-2.108;2023-12-20T12:08:05;100601.06;;;9.05;100.00
28935;BME280;16044;52.726;-2.108;2023-12-20T12:10:37;100601.91;;;9.05;100.00
28935;BME280;16044;52.726;-2.108;2023-12-20T12:13:07;100593.47;;;9.08;100.00
28935;BME280;16044;52.726;-2.108;2023-12-20T12:15:40;100585.38;;;9.08;100.00
28935;BME280;16044;52.726;-2.108;2023-12-20T12:18:15;100595.00;;;9.11;100.00
28935;BME280;16044;52.726;-2.108;2023-12-20T12:20:46;100588.09;;;9.16;100.00
28935;BME280;16044;52.726;-2.108;2023-12-20T12:23:22;100579.66;;;9.11;100.00
28935;BME280;16044;52.726;-2.108;2023-12-20T12:25:54;100567.31;;;9.17;100.00
28935;BME280;16044;52.726;-2.108;2023-12-20T12:28:26;100567.78;;;9.12;100.00
28935;BME280;16044;52.726;-2.108;2023-12-20T12:31:02;100553.97;;;9.15;100.00
28935;BME280;16044;52.726;-2.108;2023-12-20T12:33:33;100548.53;;;9.15;100.00
28935;BME280;16044;52.726;-2.108;2023-12-20T12:36:05;100531.13;;;9.18;100.00
28935;BME280;16044;52.726;-2.108;2023-12-20T12:38:36;100537.41;;;9.27;100.00
28935;BME280;16044;52.726;-2.108;2023-12-20T12:41:06;100538.09;;;9.29;100.00
28935;BME280;16044;52.726;-2.108;2023-12-20T12:43:37;100523.22;;;9.33;100.00
28935;BME280;16044;52.726;-2.108;2023-12-20T12:46:11;100538.97;;;9.38;100.00
28935;BME280;16044;52.726;-2.108;2023-12-20T12:48:41;100538.75;;;9.39;100.00
28935;BME280;16044;52.726;-2.108;2023-12-20T12:51:13;100526.78;;;9.42;100.00
28935;BME280;16044;52.726;-2.108;2023-12-20T12:53:43;100532.88;;;9.44;100.00
28935;BME280;16044;52.726;-2.108;2023-12-20T12:56:14;100524.75;;;9.44;100.00
28935;BME280;16044;52.726;-2.108;2023-12-20T12:58:45;100532.00;;;9.43;100.00
28935;BME280;16044;52.726;-2.108;2023-12-20T13:01:18;100531.84;;;9.36;100.00
28935;BME280;16044;52.726;-2.108;2023-12-20T13:03:49;100515.09;;;9.41;100.00